Schwaz, Austria
Current Conditions -  °F | °C
As of 5:20 PM on Wednesday 28 Jan 2015 (Local Time) from LOWI Reporting Station
Broken Clouds Broken Clouds  
Wind Chill: 28°   Ceiling: 30000
Heat Index: 28°   Visibility: 6mi
Dew Point: 28°   Wind: 2mph
Humidity: 100%   Direction: NA
Pressure: 29.88"   Gusts: NA
Location:  47.34°N, 11.73°E
Report Text: LOWI 281620Z VRB02KT 9999 FEW120 BKN300 M02/M02 Q1012 R08/1///95 NOSIG
Loading
Personal Weather Stations






























Interactive Weather Map New forecast layout! Learn more

10-Day Weather Forecast

Advertisements
Track Severe Weather on mobile